Terminal Aerodrome Forecast
Issued by NWS Green Bay, WI

Home | Current Version | Previous Version | Graphics & Text | Print | Product List | Glossary On
Versions: 1 2 3 4 5 6 7 8 9 10 11 12 13 14 15 16 17 18 19 20 21 22 23 24 25 26 27 28 29 30 31 32 33 34 35 36 37 38 39 40 41 42 43 44
920
FTUS43 KGRB 232000 AAA
TAFGRB
TAF AMD
KGRB 232000Z 2320/2418 11006KT P6SM SCT025 BKN100
     FM240000 05008KT P6SM SCT025 BKN060
     FM240500 04012KT 6SM -SN OVC025
     FM240800 03018G28KT 3SM -SN OVC015
     FM241100 02019G30KT 2SM -SNPL OVC008
     FM241400 03022G32KT 1 1/2SM -FZRA BR OVC010=

USA.gov is the U.S. government's official web portal to all federal, state and local government web resources and services.